Details From PAGS - GUSTAVUS
To PAFE - KAKE
Flight Number -
Tags decoded
Created
Modified
Stats Distance 105 nm / 195 km
Max Altitude 0 ft / 0 m
Waypoints 2
Social Downloads 0
Likes 0
Share VATSIM

Download

Looking for another format? Having issues loading an existing format? Contact us
Advertisement - Login to hide

Notes

Requested: PAGS PAFE

Route

PAGS PAFE

ID Type Via Altitude Latitude Longitude Leg Dist Tot Dist Heading (true) Name
O PAGS APT - 0 ft / 0 m 58.42469˚ -135.70896˚ - 0 nm - GUSTAVUS
O PAFE APT - 0 ft / 0 m 56.96136˚ -133.91026˚ 105 nm 105 nm 146° / 147° KAKE

Altitude Profile

Advertisement - Login to hide

PAGS

Details ICAO PAGS (GST)
Name GUSTAVUS
Region USA (Alaska)
Timezone America/Juneau (UTC-9.0)
Stats Elevation 34 ft / 10 m (AMSL)
Location 58.424690° -135.708964°
Runways 2
Magnetic Variation 19.054° E

METAR

PAGS 111056Z AUTO 35006KT 9SM RA OVC010 04/04 A2986 RMK AO2 SLP113 P0013 T00440039

Decode

TAF

TAF PAGS 110537Z 1106/1206 32010KT P6SM -RA SCT015 OVC040 WS020/14045KT FM110700 14011G18KT 6SM RA BR SCT015 OVC030 FM111800 11009KT 5SM -RA BR BKN015 OVC030 FM120000 15005KT P6SM -RA BKN030 OVC050 AMD LTD TO CLD VIS AND WIND

Decode

Departure Runways

ID Width Length Bearing (true) Bearing (mag) Surface Threshold Offset Overrun Length
02 60 ft / 18 m 3,003 ft / 915 m 40.96° 21.91° Asphalt 0 ft / 0 m 0 ft / 0 m
11 150 ft / 46 m 6,704 ft / 2,044 m 135.06° 116.01° Asphalt 0 ft / 0 m 0 ft / 0 m
20 60 ft / 18 m 3,003 ft / 915 m 220.97° 201.92° Asphalt 0 ft / 0 m 0 ft / 0 m
29 150 ft / 46 m 6,704 ft / 2,044 m 315.08° 296.03° Asphalt 0 ft / 0 m 0 ft / 0 m

PAFE

Details ICAO PAFE (AFE)
Name KAKE
Region USA (Alaska)
Timezone America/Juneau (UTC-9.0)
Stats Elevation 172 ft / 52 m (AMSL)
Location 56.961362° -133.910261°
Runways 1
Magnetic Variation 18.853° E

METAR

PAFE 111056Z AUTO 10011G20KT 10SM 09/07 A2994 RMK AO2 RAE26 SLP151 P0000 T00940072 $

Decode

TAF

Not found

Destination Runways

ID Width Length Bearing (true) Bearing (mag) Surface Threshold Offset Overrun Length
10 100 ft / 30 m 3,990 ft / 1,216 m 129.93° 111.08° Asphalt 0 ft / 0 m 295 ft / 90 m
28 100 ft / 30 m 3,990 ft / 1,216 m 309.94° 291.09° Asphalt 1,000 ft / 305 m 295 ft / 90 m